sensor_id;sensor_type;location;lat;lon;timestamp;pressure;altitude;pressure_sealevel;temperature;humidity
44127;BME280;29786;50.798;7.302;2022-09-17T00:00:33;98860;;;9.37;100
44127;BME280;29786;50.798;7.302;2022-09-17T00:01:33;98860;;;9.42;100
44127;BME280;29786;50.798;7.302;2022-09-17T00:02:33;98860;;;9.43;100
44127;BME280;29786;50.798;7.302;2022-09-17T00:03:34;98860;;;9.42;100
44127;BME280;29786;50.798;7.302;2022-09-17T00:04:33;98860;;;9.41;100
44127;BME280;29786;50.798;7.302;2022-09-17T00:05:34;98860;;;9.41;100
44127;BME280;29786;50.798;7.302;2022-09-17T00:06:34;98850;;;9.39;100
44127;BME280;29786;50.798;7.302;2022-09-17T00:07:33;98860;;;9.38;100
44127;BME280;29786;50.798;7.302;2022-09-17T00:08:34;98860;;;9.39;100
44127;BME280;29786;50.798;7.302;2022-09-17T00:09:33;98860;;;9.43;100
44127;BME280;29786;50.798;7.302;2022-09-17T00:10:37;98860;;;9.39;100
44127;BME280;29786;50.798;7.302;2022-09-17T00:11:36;98860;;;9.38;100
44127;BME280;29786;50.798;7.302;2022-09-17T00:12:33;98860;;;9.35;100
44127;BME280;29786;50.798;7.302;2022-09-17T00:13:33;98860;;;9.39;100
44127;BME280;29786;50.798;7.302;2022-09-17T00:14:33;98860;;;9.39;100
44127;BME280;29786;50.798;7.302;2022-09-17T00:15:42;98860;;;9.35;100
44127;BME280;29786;50.798;7.302;2022-09-17T00:16:35;98860;;;9.37;100
44127;BME280;29786;50.798;7.302;2022-09-17T00:17:33;98860;;;9.37;100
44127;BME280;29786;50.798;7.302;2022-09-17T00:18:34;98860;;;9.39;100
44127;BME280;29786;50.798;7.302;2022-09-17T00:19:33;98860;;;9.41;100
44127;BME280;29786;50.798;7.302;2022-09-17T00:20:42;98860;;;9.35;100
44127;BME280;29786;50.798;7.302;2022-09-17T00:21:33;98870;;;9.34;100
44127;BME280;29786;50.798;7.302;2022-09-17T00:22:33;98870;;;9.34;100
44127;BME280;29786;50.798;7.302;2022-09-17T00:23:34;98870;;;9.31;100
44127;BME280;29786;50.798;7.302;2022-09-17T00:24:33;98870;;;9.34;100
44127;BME280;29786;50.798;7.302;2022-09-17T00:25:36;98870;;;9.35;100
44127;BME280;29786;50.798;7.302;2022-09-17T00:26:34;98870;;;9.34;100
44127;BME280;29786;50.798;7.302;2022-09-17T00:27:34;98870;;;9.35;100
44127;BME280;29786;50.798;7.302;2022-09-17T00:28:33;98870;;;9.35;100
44127;BME280;29786;50.798;7.302;2022-09-17T00:29:34;98870;;;9.34;100
44127;BME280;29786;50.798;7.302;2022-09-17T00:30:34;98870;;;9.32;100
44127;BME280;29786;50.798;7.302;2022-09-17T00:31:34;98870;;;9.32;100
44127;BME280;29786;50.798;7.302;2022-09-17T00:32:33;98870;;;9.35;100
44127;BME280;29786;50.798;7.302;2022-09-17T00:33:34;98870;;;9.31;100
44127;BME280;29786;50.798;7.302;2022-09-17T00:34:34;98870;;;9.33;100
44127;BME280;29786;50.798;7.302;2022-09-17T00:35:33;98870;;;9.35;100
44127;BME280;29786;50.798;7.302;2022-09-17T00:36:34;98870;;;9.35;100
44127;BME280;29786;50.798;7.302;2022-09-17T00:37:33;98870;;;9.35;100
44127;BME280;29786;50.798;7.302;2022-09-17T00:38:34;98870;;;9.34;100
44127;BME280;29786;50.798;7.302;2022-09-17T00:39:33;98870;;;9.35;100
44127;BME280;29786;50.798;7.302;2022-09-17T00:40:34;98870;;;9.32;100
44127;BME280;29786;50.798;7.302;2022-09-17T00:41:34;98870;;;9.3;100
44127;BME280;29786;50.798;7.302;2022-09-17T00:42:33;98870;;;9.27;100
44127;BME280;29786;50.798;7.302;2022-09-17T00:43:42;98870;;;9.22;100
44127;BME280;29786;50.798;7.302;2022-09-17T00:44:38;98870;;;9.28;100
44127;BME280;29786;50.798;7.302;2022-09-17T00:45:33;98870;;;9.32;100
44127;BME280;29786;50.798;7.302;2022-09-17T00:46:34;98870;;;9.31;100
44127;BME280;29786;50.798;7.302;2022-09-17T00:47:35;98860;;;9.34;100
44127;BME280;29786;50.798;7.302;2022-09-17T00:48:33;98860;;;9.32;100
44127;BME280;29786;50.798;7.302;2022-09-17T00:49:34;98870;;;9.3;100
44127;BME280;29786;50.798;7.302;2022-09-17T00:50:35;98860;;;9.31;100
44127;BME280;29786;50.798;7.302;2022-09-17T00:51:36;98860;;;9.33;100
44127;BME280;29786;50.798;7.302;2022-09-17T00:52:35;98870;;;9.35;100
44127;BME280;29786;50.798;7.302;2022-09-17T00:53:33;98860;;;9.35;100
44127;BME280;29786;50.798;7.302;2022-09-17T00:54:34;98860;;;9.33;100
44127;BME280;29786;50.798;7.302;2022-09-17T00:55:35;98870;;;9.34;100
44127;BME280;29786;50.798;7.302;2022-09-17T00:56:34;98860;;;9.31;100
44127;BME280;29786;50.798;7.302;2022-09-17T00:57:33;98870;;;9.31;100
44127;BME280;29786;50.798;7.302;2022-09-17T00:58:33;98860;;;9.31;100
44127;BME280;29786;50.798;7.302;2022-09-17T00:59:33;98860;;;9.28;100
44127;BME280;29786;50.798;7.302;2022-09-17T01:00:34;98870;;;9.22;100
44127;BME280;29786;50.798;7.302;2022-09-17T01:01:34;98870;;;9.22;100
44127;BME280;29786;50.798;7.302;2022-09-17T01:02:34;98860;;;9.22;100
44127;BME280;29786;50.798;7.302;2022-09-17T01:03:33;98860;;;9.22;100
44127;BME280;29786;50.798;7.302;2022-09-17T01:04:33;98870;;;9.27;100
44127;BME280;29786;50.798;7.302;2022-09-17T01:05:43;98870;;;9.29;100
44127;BME280;29786;50.798;7.302;2022-09-17T01:06:37;98870;;;9.3;100
44127;BME280;29786;50.798;7.302;2022-09-17T01:07:54;98870;;;9.25;100
44127;BME280;29786;50.798;7.302;2022-09-17T01:09:42;98870;;;9.27;100
44127;BME280;29786;50.798;7.302;2022-09-17T01:10:38;98870;;;9.29;100
44127;BME280;29786;50.798;7.302;2022-09-17T01:11:39;98870;;;9.33;100
44127;BME280;29786;50.798;7.302;2022-09-17T01:12:45;98860;;;9.35;100
44127;BME280;29786;50.798;7.302;2022-09-17T01:13:42;98870;;;9.34;100
44127;BME280;29786;50.798;7.302;2022-09-17T01:14:44;98870;;;9.31;100
44127;BME280;29786;50.798;7.302;2022-09-17T01:15:37;98870;;;9.31;100
44127;BME280;29786;50.798;7.302;2022-09-17T01:16:36;98870;;;9.35;100
44127;BME280;29786;50.798;7.302;2022-09-17T01:24:40;98870;;;9.32;100
44127;BME280;29786;50.798;7.302;2022-09-17T01:25:37;98870;;;9.27;100
44127;BME280;29786;50.798;7.302;2022-09-17T01:26:43;98870;;;9.25;100
44127;BME280;29786;50.798;7.302;2022-09-17T01:27:56;98870;;;9.26;100
44127;BME280;29786;50.798;7.302;2022-09-17T01:28:50;98870;;;9.27;100
44127;BME280;29786;50.798;7.302;2022-09-17T01:29:49;98870;;;9.26;100
44127;BME280;29786;50.798;7.302;2022-09-17T01:31:36;98870;;;9.3;100
44127;BME280;29786;50.798;7.302;2022-09-17T01:31:41;98870;;;9.28;100
44127;BME280;29786;50.798;7.302;2022-09-17T01:32:36;98870;;;9.28;100
44127;BME280;29786;50.798;7.302;2022-09-17T01:33:38;98870;;;9.3;100
44127;BME280;29786;50.798;7.302;2022-09-17T01:34:44;98870;;;9.28;100
44127;BME280;29786;50.798;7.302;2022-09-17T01:35:38;98870;;;9.26;100
44127;BME280;29786;50.798;7.302;2022-09-17T01:37:10;98870;;;9.28;100
44127;BME280;29786;50.798;7.302;2022-09-17T01:37:44;98870;;;9.3;100
44127;BME280;29786;50.798;7.302;2022-09-17T01:38:38;98880;;;9.3;100
44127;BME280;29786;50.798;7.302;2022-09-17T01:39:38;98870;;;9.33;100
44127;BME280;29786;50.798;7.302;2022-09-17T01:40:39;98870;;;9.37;100
44127;BME280;29786;50.798;7.302;2022-09-17T01:41:39;98880;;;9.38;100
44127;BME280;29786;50.798;7.302;2022-09-17T01:42:46;98880;;;9.43;100
44127;BME280;29786;50.798;7.302;2022-09-17T01:43:36;98880;;;9.41;100
44127;BME280;29786;50.798;7.302;2022-09-17T01:44:39;98880;;;9.43;100
44127;BME280;29786;50.798;7.302;2022-09-17T01:45:35;98870;;;9.43;100
44127;BME280;29786;50.798;7.302;2022-09-17T01:46:36;98880;;;9.45;100
44127;BME280;29786;50.798;7.302;2022-09-17T01:47:36;98880;;;9.41;100
44127;BME280;29786;50.798;7.302;2022-09-17T01:48:35;98880;;;9.45;100
44127;BME280;29786;50.798;7.302;2022-09-17T01:49:34;98870;;;9.39;100
44127;BME280;29786;50.798;7.302;2022-09-17T01:50:39;98870;;;9.43;100
44127;BME280;29786;50.798;7.302;2022-09-17T01:51:35;98880;;;9.41;100
44127;BME280;29786;50.798;7.302;2022-09-17T01:52:34;98880;;;9.38;100
44127;BME280;29786;50.798;7.302;2022-09-17T01:53:35;98880;;;9.37;100
44127;BME280;29786;50.798;7.302;2022-09-17T01:54:35;98880;;;9.35;100
44127;BME280;29786;50.798;7.302;2022-09-17T01:55:34;98880;;;9.34;100
44127;BME280;29786;50.798;7.302;2022-09-17T01:56:52;98880;;;9.32;100
44127;BME280;29786;50.798;7.302;2022-09-17T01:57:35;98880;;;9.29;100
44127;BME280;29786;50.798;7.302;2022-09-17T01:58:35;98880;;;9.33;100
44127;BME280;29786;50.798;7.302;2022-09-17T01:59:39;98880;;;9.32;100
44127;BME280;29786;50.798;7.302;2022-09-17T02:00:34;98880;;;9.29;100
44127;BME280;29786;50.798;7.302;2022-09-17T02:01:33;98880;;;9.28;100
44127;BME280;29786;50.798;7.302;2022-09-17T02:02:36;98880;;;9.27;100
44127;BME280;29786;50.798;7.302;2022-09-17T02:03:35;98880;;;9.28;100
44127;BME280;29786;50.798;7.302;2022-09-17T02:04:38;98880;;;9.28;100
44127;BME280;29786;50.798;7.302;2022-09-17T02:05:38;98880;;;9.25;100
44127;BME280;29786;50.798;7.302;2022-09-17T02:06:35;98880;;;9.25;100
44127;BME280;29786;50.798;7.302;2022-09-17T02:07:37;98880;;;9.26;100
44127;BME280;29786;50.798;7.302;2022-09-17T02:08:36;98880;;;9.26;100
44127;BME280;29786;50.798;7.302;2022-09-17T02:09:35;98890;;;9.3;100
44127;BME280;29786;50.798;7.302;2022-09-17T02:10:35;98890;;;9.3;100
44127;BME280;29786;50.798;7.302;2022-09-17T02:11:34;98890;;;9.28;100
44127;BME280;29786;50.798;7.302;2022-09-17T02:12:35;98890;;;9.22;100
44127;BME280;29786;50.798;7.302;2022-09-17T02:13:36;98890;;;9.21;100
44127;BME280;29786;50.798;7.302;2022-09-17T02:14:37;98880;;;9.22;100
44127;BME280;29786;50.798;7.302;2022-09-17T02:15:35;98890;;;9.2;100
44127;BME280;29786;50.798;7.302;2022-09-17T02:16:34;98890;;;9.17;100
44127;BME280;29786;50.798;7.302;2022-09-17T02:17:36;98890;;;9.13;100
44127;BME280;29786;50.798;7.302;2022-09-17T02:18:36;98890;;;9.14;100
44127;BME280;29786;50.798;7.302;2022-09-17T02:19:34;98890;;;9.1;100
44127;BME280;29786;50.798;7.302;2022-09-17T02:20:38;98890;;;9.1;100
44127;BME280;29786;50.798;7.302;2022-09-17T02:21:52;98900;;;9.08;100
44127;BME280;29786;50.798;7.302;2022-09-17T02:22:41;98900;;;9.05;100
44127;BME280;29786;50.798;7.302;2022-09-17T02:23:34;98900;;;9.06;100
44127;BME280;29786;50.798;7.302;2022-09-17T02:24:43;98900;;;8.97;100
44127;BME280;29786;50.798;7.302;2022-09-17T02:25:43;98900;;;8.96;100
44127;BME280;29786;50.798;7.302;2022-09-17T02:26:33;98900;;;8.93;100
44127;BME280;29786;50.798;7.302;2022-09-17T02:28:38;98900;;;8.89;100
44127;BME280;29786;50.798;7.302;2022-09-17T02:28:39;98890;;;8.89;100
44127;BME280;29786;50.798;7.302;2022-09-17T02:29:36;98890;;;8.85;100
44127;BME280;29786;50.798;7.302;2022-09-17T02:30:34;98890;;;8.85;100
44127;BME280;29786;50.798;7.302;2022-09-17T02:31:34;98890;;;8.85;100
44127;BME280;29786;50.798;7.302;2022-09-17T02:32:34;98900;;;8.85;100
44127;BME280;29786;50.798;7.302;2022-09-17T02:33:33;98890;;;8.87;100
44127;BME280;29786;50.798;7.302;2022-09-17T02:34:34;98890;;;8.88;100
44127;BME280;29786;50.798;7.302;2022-09-17T02:35:34;98890;;;8.91;100
44127;BME280;29786;50.798;7.302;2022-09-17T02:36:33;98890;;;8.89;100
44127;BME280;29786;50.798;7.302;2022-09-17T02:37:33;98890;;;8.85;100
44127;BME280;29786;50.798;7.302;2022-09-17T02:38:34;98890;;;8.88;100
44127;BME280;29786;50.798;7.302;2022-09-17T02:39:34;98900;;;8.87;100
44127;BME280;29786;50.798;7.302;2022-09-17T02:40:34;98890;;;8.85;100
44127;BME280;29786;50.798;7.302;2022-09-17T02:41:36;98890;;;8.89;100
44127;BME280;29786;50.798;7.302;2022-09-17T02:42:42;98900;;;8.89;100
44127;BME280;29786;50.798;7.302;2022-09-17T02:43:35;98890;;;8.89;100
44127;BME280;29786;50.798;7.302;2022-09-17T02:44:45;98900;;;8.93;100
44127;BME280;29786;50.798;7.302;2022-09-17T02:46:41;98900;;;8.95;100
44127;BME280;29786;50.798;7.302;2022-09-17T02:46:42;98900;;;8.97;100
44127;BME280;29786;50.798;7.302;2022-09-17T02:49:38;98890;;;8.97;100
44127;BME280;29786;50.798;7.302;2022-09-17T02:49:42;98890;;;8.95;100
44127;BME280;29786;50.798;7.302;2022-09-17T02:50:39;98890;;;8.96;100
44127;BME280;29786;50.798;7.302;2022-09-17T02:52:39;98890;;;8.97;100
44127;BME280;29786;50.798;7.302;2022-09-17T02:53:36;98890;;;8.99;100
44127;BME280;29786;50.798;7.302;2022-09-17T02:54:37;98890;;;9.01;100
44127;BME280;29786;50.798;7.302;2022-09-17T02:55:37;98890;;;9.01;100
44127;BME280;29786;50.798;7.302;2022-09-17T02:56:51;98890;;;9.02;100
44127;BME280;29786;50.798;7.302;2022-09-17T02:57:37;98890;;;9.03;100
44127;BME280;29786;50.798;7.302;2022-09-17T02:58:39;98890;;;9.02;100
44127;BME280;29786;50.798;7.302;2022-09-17T02:59:37;98890;;;9.02;100
44127;BME280;29786;50.798;7.302;2022-09-17T03:00:33;98890;;;9.05;100
44127;BME280;29786;50.798;7.302;2022-09-17T03:01:35;98900;;;9.05;100
44127;BME280;29786;50.798;7.302;2022-09-17T03:02:42;98890;;;9.02;100
44127;BME280;29786;50.798;7.302;2022-09-17T03:03:35;98900;;;9.03;100
44127;BME280;29786;50.798;7.302;2022-09-17T03:04:33;98890;;;9.05;100
44127;BME280;29786;50.798;7.302;2022-09-17T03:05:34;98890;;;9.08;100
44127;BME280;29786;50.798;7.302;2022-09-17T03:06:34;98890;;;9.07;100
44127;BME280;29786;50.798;7.302;2022-09-17T03:07:34;98890;;;9.03;100
44127;BME280;29786;50.798;7.302;2022-09-17T03:08:35;98890;;;9;100
44127;BME280;29786;50.798;7.302;2022-09-17T03:09:34;98890;;;9.02;100
44127;BME280;29786;50.798;7.302;2022-09-17T03:10:34;98890;;;9.01;100
44127;BME280;29786;50.798;7.302;2022-09-17T03:11:33;98890;;;9.04;100
44127;BME280;29786;50.798;7.302;2022-09-17T03:12:33;98890;;;9.06;100
44127;BME280;29786;50.798;7.302;2022-09-17T03:13:34;98890;;;9.04;100
44127;BME280;29786;50.798;7.302;2022-09-17T03:14:33;98890;;;9.03;100
44127;BME280;29786;50.798;7.302;2022-09-17T03:15:33;98890;;;9.02;100
44127;BME280;29786;50.798;7.302;2022-09-17T03:16:33;98890;;;9;100
44127;BME280;29786;50.798;7.302;2022-09-17T03:17:33;98890;;;9.03;100
44127;BME280;29786;50.798;7.302;2022-09-17T03:18:34;98890;;;9.05;100
44127;BME280;29786;50.798;7.302;2022-09-17T03:19:33;98890;;;9.01;100
44127;BME280;29786;50.798;7.302;2022-09-17T03:20:33;98900;;;8.97;100
44127;BME280;29786;50.798;7.302;2022-09-17T03:21:33;98890;;;9.01;100
44127;BME280;29786;50.798;7.302;2022-09-17T03:22:34;98890;;;9.01;100
44127;BME280;29786;50.798;7.302;2022-09-17T03:23:33;98890;;;9.05;100
44127;BME280;29786;50.798;7.302;2022-09-17T03:24:33;98890;;;9.06;100
44127;BME280;29786;50.798;7.302;2022-09-17T03:25:34;98900;;;9.02;100
44127;BME280;29786;50.798;7.302;2022-09-17T03:26:33;98890;;;8.97;100
44127;BME280;29786;50.798;7.302;2022-09-17T03:27:33;98890;;;9.02;100
44127;BME280;29786;50.798;7.302;2022-09-17T03:28:33;98890;;;9.03;100
44127;BME280;29786;50.798;7.302;2022-09-17T03:29:33;98900;;;8.99;100
44127;BME280;29786;50.798;7.302;2022-09-17T03:30:34;98890;;;9;100
44127;BME280;29786;50.798;7.302;2022-09-17T03:31:34;98890;;;8.97;100
44127;BME280;29786;50.798;7.302;2022-09-17T03:32:34;98890;;;8.91;100
44127;BME280;29786;50.798;7.302;2022-09-17T03:33:34;98890;;;8.93;100
44127;BME280;29786;50.798;7.302;2022-09-17T03:34:34;98890;;;8.93;100
44127;BME280;29786;50.798;7.302;2022-09-17T03:35:34;98890;;;8.91;100
44127;BME280;29786;50.798;7.302;2022-09-17T03:36:34;98890;;;8.91;100
44127;BME280;29786;50.798;7.302;2022-09-17T03:37:33;98890;;;8.92;100
44127;BME280;29786;50.798;7.302;2022-09-17T03:38:33;98900;;;8.91;100
44127;BME280;29786;50.798;7.302;2022-09-17T03:39:33;98890;;;8.91;100
44127;BME280;29786;50.798;7.302;2022-09-17T03:40:33;98890;;;8.91;100
44127;BME280;29786;50.798;7.302;2022-09-17T03:41:33;98890;;;8.97;100
44127;BME280;29786;50.798;7.302;2022-09-17T03:42:33;98900;;;8.91;100
44127;BME280;29786;50.798;7.302;2022-09-17T03:43:33;98900;;;8.93;100
44127;BME280;29786;50.798;7.302;2022-09-17T03:44:33;98890;;;8.89;100
44127;BME280;29786;50.798;7.302;2022-09-17T03:45:33;98890;;;8.85;100
44127;BME280;29786;50.798;7.302;2022-09-17T03:46:33;98900;;;8.85;100
44127;BME280;29786;50.798;7.302;2022-09-17T03:47:33;98900;;;8.87;100
44127;BME280;29786;50.798;7.302;2022-09-17T03:48:33;98900;;;8.87;100
44127;BME280;29786;50.798;7.302;2022-09-17T03:49:34;98900;;;8.87;100
44127;BME280;29786;50.798;7.302;2022-09-17T03:50:33;98900;;;8.91;100
44127;BME280;29786;50.798;7.302;2022-09-17T03:51:33;98900;;;8.88;100
44127;BME280;29786;50.798;7.302;2022-09-17T03:52:33;98910;;;8.88;100
44127;BME280;29786;50.798;7.302;2022-09-17T03:53:33;98910;;;8.91;100
44127;BME280;29786;50.798;7.302;2022-09-17T03:54:33;98910;;;8.89;100
44127;BME280;29786;50.798;7.302;2022-09-17T03:55:36;98910;;;8.88;100
44127;BME280;29786;50.798;7.302;2022-09-17T03:56:33;98900;;;8.87;100
44127;BME280;29786;50.798;7.302;2022-09-17T03:57:33;98900;;;8.89;100
44127;BME280;29786;50.798;7.302;2022-09-17T03:58:34;98900;;;8.89;100
44127;BME280;29786;50.798;7.302;2022-09-17T03:59:33;98910;;;8.89;100
44127;BME280;29786;50.798;7.302;2022-09-17T04:00:34;98900;;;8.89;100
44127;BME280;29786;50.798;7.302;2022-09-17T04:01:34;98900;;;8.85;100
44127;BME280;29786;50.798;7.302;2022-09-17T04:02:34;98900;;;8.84;100
44127;BME280;29786;50.798;7.302;2022-09-17T04:03:33;98900;;;8.83;100
44127;BME280;29786;50.798;7.302;2022-09-17T04:04:33;98900;;;8.81;100
44127;BME280;29786;50.798;7.302;2022-09-17T04:05:33;98910;;;8.81;100
44127;BME280;29786;50.798;7.302;2022-09-17T04:06:33;98910;;;8.81;100
44127;BME280;29786;50.798;7.302;2022-09-17T04:07:33;98910;;;8.79;100
44127;BME280;29786;50.798;7.302;2022-09-17T04:08:33;98910;;;8.8;100
44127;BME280;29786;50.798;7.302;2022-09-17T04:09:33;98910;;;8.8;100
44127;BME280;29786;50.798;7.302;2022-09-17T04:10:33;98910;;;8.81;100
44127;BME280;29786;50.798;7.302;2022-09-17T04:11:34;98910;;;8.83;100
44127;BME280;29786;50.798;7.302;2022-09-17T04:12:33;98910;;;8.85;100
44127;BME280;29786;50.798;7.302;2022-09-17T04:13:33;98920;;;8.87;100
44127;BME280;29786;50.798;7.302;2022-09-17T04:14:33;98920;;;8.85;100
44127;BME280;29786;50.798;7.302;2022-09-17T04:15:33;98920;;;8.83;100
44127;BME280;29786;50.798;7.302;2022-09-17T04:16:34;98920;;;8.85;100
44127;BME280;29786;50.798;7.302;2022-09-17T04:17:33;98920;;;8.84;100
44127;BME280;29786;50.798;7.302;2022-09-17T04:18:33;98920;;;8.83;100
44127;BME280;29786;50.798;7.302;2022-09-17T04:19:33;98920;;;8.85;100
44127;BME280;29786;50.798;7.302;2022-09-17T04:20:33;98910;;;8.87;100
44127;BME280;29786;50.798;7.302;2022-09-17T04:21:33;98920;;;8.85;100
44127;BME280;29786;50.798;7.302;2022-09-17T04:22:34;98910;;;8.84;100
44127;BME280;29786;50.798;7.302;2022-09-17T04:23:33;98920;;;8.85;100
44127;BME280;29786;50.798;7.302;2022-09-17T04:24:33;98920;;;8.83;100
44127;BME280;29786;50.798;7.302;2022-09-17T04:25:34;98920;;;8.84;100
44127;BME280;29786;50.798;7.302;2022-09-17T04:26:33;98920;;;8.85;100
44127;BME280;29786;50.798;7.302;2022-09-17T04:27:33;98920;;;8.88;100
44127;BME280;29786;50.798;7.302;2022-09-17T04:28:34;98920;;;8.91;100
44127;BME280;29786;50.798;7.302;2022-09-17T04:29:33;98920;;;8.91;100
44127;BME280;29786;50.798;7.302;2022-09-17T04:30:33;98920;;;8.88;100
44127;BME280;29786;50.798;7.302;2022-09-17T04:31:33;98920;;;8.89;100
44127;BME280;29786;50.798;7.302;2022-09-17T04:32:33;98920;;;8.89;100
44127;BME280;29786;50.798;7.302;2022-09-17T04:33:33;98910;;;8.89;100
44127;BME280;29786;50.798;7.302;2022-09-17T04:34:33;98920;;;8.89;100
44127;BME280;29786;50.798;7.302;2022-09-17T04:35:34;98920;;;8.89;100
44127;BME280;29786;50.798;7.302;2022-09-17T04:36:33;98920;;;8.84;100
44127;BME280;29786;50.798;7.302;2022-09-17T04:37:34;98910;;;8.84;100
44127;BME280;29786;50.798;7.302;2022-09-17T04:38:34;98910;;;8.84;100
44127;BME280;29786;50.798;7.302;2022-09-17T04:39:33;98920;;;8.81;100
44127;BME280;29786;50.798;7.302;2022-09-17T04:40:33;98920;;;8.84;100
44127;BME280;29786;50.798;7.302;2022-09-17T04:41:34;98910;;;8.82;100
44127;BME280;29786;50.798;7.302;2022-09-17T04:42:33;98910;;;8.81;100
44127;BME280;29786;50.798;7.302;2022-09-17T04:43:34;98910;;;8.79;100
44127;BME280;29786;50.798;7.302;2022-09-17T04:44:33;98910;;;8.77;100
44127;BME280;29786;50.798;7.302;2022-09-17T04:45:33;98910;;;8.77;100
44127;BME280;29786;50.798;7.302;2022-09-17T04:46:33;98920;;;8.79;100
44127;BME280;29786;50.798;7.302;2022-09-17T04:47:36;98920;;;8.79;100
44127;BME280;29786;50.798;7.302;2022-09-17T04:48:34;98920;;;8.78;100
44127;BME280;29786;50.798;7.302;2022-09-17T04:49:34;98920;;;8.77;100
44127;BME280;29786;50.798;7.302;2022-09-17T04:50:33;98920;;;8.79;100
44127;BME280;29786;50.798;7.302;2022-09-17T04:51:34;98920;;;8.76;100
44127;BME280;29786;50.798;7.302;2022-09-17T04:52:33;98920;;;8.76;100
44127;BME280;29786;50.798;7.302;2022-09-17T04:53:33;98920;;;8.78;100
44127;BME280;29786;50.798;7.302;2022-09-17T04:54:33;98920;;;8.77;100
44127;BME280;29786;50.798;7.302;2022-09-17T04:55:33;98920;;;8.81;100
44127;BME280;29786;50.798;7.302;2022-09-17T04:56:33;98930;;;8.82;100
44127;BME280;29786;50.798;7.302;2022-09-17T04:57:33;98930;;;8.8;100
44127;BME280;29786;50.798;7.302;2022-09-17T04:58:33;98930;;;8.82;100
44127;BME280;29786;50.798;7.302;2022-09-17T04:59:33;98930;;;8.79;100
44127;BME280;29786;50.798;7.302;2022-09-17T05:00:33;98930;;;8.78;100
44127;BME280;29786;50.798;7.302;2022-09-17T05:01:34;98930;;;8.77;100
44127;BME280;29786;50.798;7.302;2022-09-17T05:02:33;98930;;;8.78;100
44127;BME280;29786;50.798;7.302;2022-09-17T05:03:33;98930;;;8.79;100
44127;BME280;29786;50.798;7.302;2022-09-17T05:04:33;98940;;;8.81;100
44127;BME280;29786;50.798;7.302;2022-09-17T05:05:33;98940;;;8.77;100
44127;BME280;29786;50.798;7.302;2022-09-17T05:06:34;98940;;;8.79;100
44127;BME280;29786;50.798;7.302;2022-09-17T05:07:33;98940;;;8.79;100
44127;BME280;29786;50.798;7.302;2022-09-17T05:08:33;98930;;;8.78;100
44127;BME280;29786;50.798;7.302;2022-09-17T05:09:33;98930;;;8.78;100
44127;BME280;29786;50.798;7.302;2022-09-17T05:10:33;98930;;;8.76;100
44127;BME280;29786;50.798;7.302;2022-09-17T05:11:33;98930;;;8.77;100
44127;BME280;29786;50.798;7.302;2022-09-17T05:12:33;98930;;;8.72;100
44127;BME280;29786;50.798;7.302;2022-09-17T05:13:33;98930;;;8.74;100
44127;BME280;29786;50.798;7.302;2022-09-17T05:14:33;98940;;;8.76;100
44127;BME280;29786;50.798;7.302;2022-09-17T05:15:34;98930;;;8.76;100
44127;BME280;29786;50.798;7.302;2022-09-17T05:16:33;98940;;;8.75;100
44127;BME280;29786;50.798;7.302;2022-09-17T05:17:33;98940;;;8.74;100
44127;BME280;29786;50.798;7.302;2022-09-17T05:18:33;98940;;;8.77;100
44127;BME280;29786;50.798;7.302;2022-09-17T05:19:33;98940;;;8.76;100
44127;BME280;29786;50.798;7.302;2022-09-17T05:20:33;98940;;;8.76;100
44127;BME280;29786;50.798;7.302;2022-09-17T05:21:33;98940;;;8.77;100
44127;BME280;29786;50.798;7.302;2022-09-17T05:22:33;98950;;;8.78;100
44127;BME280;29786;50.798;7.302;2022-09-17T05:23:33;98940;;;8.79;100
44127;BME280;29786;50.798;7.302;2022-09-17T05:24:34;98940;;;8.81;100
44127;BME280;29786;50.798;7.302;2022-09-17T05:25:34;98940;;;8.85;100
44127;BME280;29786;50.798;7.302;2022-09-17T05:26:33;98940;;;8.85;100
44127;BME280;29786;50.798;7.302;2022-09-17T05:27:34;98950;;;8.87;100
44127;BME280;29786;50.798;7.302;2022-09-17T05:28:33;98940;;;8.89;100
44127;BME280;29786;50.798;7.302;2022-09-17T05:29:34;98950;;;8.89;100
44127;BME280;29786;50.798;7.302;2022-09-17T05:30:33;98950;;;8.91;100
44127;BME280;29786;50.798;7.302;2022-09-17T05:31:33;98950;;;8.92;100
44127;BME280;29786;50.798;7.302;2022-09-17T05:32:34;98950;;;8.92;100
44127;BME280;29786;50.798;7.302;2022-09-17T05:33:33;98950;;;8.92;100
44127;BME280;29786;50.798;7.302;2022-09-17T05:34:33;98950;;;8.91;100
44127;BME280;29786;50.798;7.302;2022-09-17T05:35:33;98950;;;8.93;100
44127;BME280;29786;50.798;7.302;2022-09-17T05:36:33;98950;;;8.93;100
44127;BME280;29786;50.798;7.302;2022-09-17T05:37:33;98950;;;8.92;100
44127;BME280;29786;50.798;7.302;2022-09-17T05:38:34;98960;;;8.89;100
44127;BME280;29786;50.798;7.302;2022-09-17T05:39:33;98960;;;8.88;100
44127;BME280;29786;50.798;7.302;2022-09-17T05:40:34;98960;;;8.89;100
44127;BME280;29786;50.798;7.302;2022-09-17T05:41:33;98960;;;8.87;100
44127;BME280;29786;50.798;7.302;2022-09-17T05:42:34;98950;;;8.85;100
44127;BME280;29786;50.798;7.302;2022-09-17T05:43:34;98950;;;8.87;100
44127;BME280;29786;50.798;7.302;2022-09-17T05:44:33;98960;;;8.83;100
44127;BME280;29786;50.798;7.302;2022-09-17T05:45:34;98960;;;8.84;100
44127;BME280;29786;50.798;7.302;2022-09-17T05:46:33;98960;;;8.85;100
44127;BME280;29786;50.798;7.302;2022-09-17T05:47:33;98960;;;8.84;100
44127;BME280;29786;50.798;7.302;2022-09-17T05:48:33;98960;;;8.85;100
44127;BME280;29786;50.798;7.302;2022-09-17T05:49:33;98970;;;8.85;100
44127;BME280;29786;50.798;7.302;2022-09-17T05:50:33;98960;;;8.84;100
44127;BME280;29786;50.798;7.302;2022-09-17T05:51:33;98960;;;8.85;100
44127;BME280;29786;50.798;7.302;2022-09-17T05:52:33;98970;;;8.88;100
44127;BME280;29786;50.798;7.302;2022-09-17T05:53:33;98960;;;8.87;100
44127;BME280;29786;50.798;7.302;2022-09-17T05:54:33;98970;;;8.87;100
44127;BME280;29786;50.798;7.302;2022-09-17T05:55:33;98970;;;8.87;100